sensor_id;sensor_type;location;lat;lon;timestamp;P1;durP1;ratioP1;P2;durP2;ratioP2
40541;SDS011;49288;52.194;5.676;2023-07-29T00:01:06;13.75;;;6.05;;
40541;SDS011;49288;52.194;5.676;2023-07-29T00:06:09;12.75;;;6.32;;
40541;SDS011;49288;52.194;5.676;2023-07-29T00:11:12;14.93;;;6.35;;
40541;SDS011;49288;52.194;5.676;2023-07-29T00:16:14;10.15;;;5.82;;
40541;SDS011;49288;52.194;5.676;2023-07-29T00:21:20;9.00;;;5.68;;
40541;SDS011;49288;52.194;5.676;2023-07-29T00:26:23;9.68;;;6.55;;
40541;SDS011;49288;52.194;5.676;2023-07-29T00:31:28;7.72;;;5.25;;
40541;SDS011;49288;52.194;5.676;2023-07-29T00:36:31;16.02;;;6.30;;
40541;SDS011;49288;52.194;5.676;2023-07-29T00:41:35;14.23;;;6.05;;
40541;SDS011;49288;52.194;5.676;2023-07-29T00:46:37;13.95;;;6.63;;
40541;SDS011;49288;52.194;5.676;2023-07-29T00:51:40;9.82;;;6.22;;
40541;SDS011;49288;52.194;5.676;2023-07-29T00:56:45;12.88;;;6.28;;
40541;SDS011;49288;52.194;5.676;2023-07-29T01:01:47;11.68;;;4.95;;
40541;SDS011;49288;52.194;5.676;2023-07-29T01:06:58;8.97;;;5.50;;
40541;SDS011;49288;52.194;5.676;2023-07-29T01:12:22;12.43;;;6.00;;
40541;SDS011;49288;52.194;5.676;2023-07-29T01:17:48;14.63;;;6.03;;
40541;SDS011;49288;52.194;5.676;2023-07-29T01:22:55;11.23;;;5.70;;
40541;SDS011;49288;52.194;5.676;2023-07-29T01:27:57;9.30;;;5.55;;
40541;SDS011;49288;52.194;5.676;2023-07-29T01:33:04;9.98;;;5.50;;
40541;SDS011;49288;52.194;5.676;2023-07-29T01:38:14;12.50;;;5.18;;
40541;SDS011;49288;52.194;5.676;2023-07-29T01:43:23;30.58;;;5.93;;
40541;SDS011;49288;52.194;5.676;2023-07-29T01:48:28;8.40;;;4.95;;
40541;SDS011;49288;52.194;5.676;2023-07-29T01:53:32;13.07;;;5.40;;
40541;SDS011;49288;52.194;5.676;2023-07-29T01:58:38;8.27;;;5.13;;
40541;SDS011;49288;52.194;5.676;2023-07-29T02:03:41;12.82;;;5.82;;
40541;SDS011;49288;52.194;5.676;2023-07-29T02:08:43;8.82;;;5.63;;
40541;SDS011;49288;52.194;5.676;2023-07-29T02:13:46;10.32;;;4.63;;
40541;SDS011;49288;52.194;5.676;2023-07-29T02:18:49;11.60;;;4.00;;
40541;SDS011;49288;52.194;5.676;2023-07-29T02:23:55;10.50;;;5.15;;
40541;SDS011;49288;52.194;5.676;2023-07-29T02:28:59;8.70;;;5.20;;
40541;SDS011;49288;52.194;5.676;2023-07-29T02:34:02;13.52;;;5.88;;
40541;SDS011;49288;52.194;5.676;2023-07-29T02:39:05;12.55;;;6.05;;
40541;SDS011;49288;52.194;5.676;2023-07-29T02:44:08;11.63;;;5.88;;
40541;SDS011;49288;52.194;5.676;2023-07-29T02:49:10;8.45;;;4.82;;
40541;SDS011;49288;52.194;5.676;2023-07-29T02:54:13;8.50;;;5.22;;
40541;SDS011;49288;52.194;5.676;2023-07-29T02:59:16;13.05;;;4.63;;
40541;SDS011;49288;52.194;5.676;2023-07-29T03:04:19;10.88;;;5.57;;
40541;SDS011;49288;52.194;5.676;2023-07-29T03:09:21;17.83;;;5.55;;
40541;SDS011;49288;52.194;5.676;2023-07-29T03:14:26;10.43;;;5.80;;
40541;SDS011;49288;52.194;5.676;2023-07-29T03:19:30;10.13;;;5.47;;
40541;SDS011;49288;52.194;5.676;2023-07-29T03:24:33;13.18;;;5.82;;
40541;SDS011;49288;52.194;5.676;2023-07-29T03:29:35;16.13;;;8.30;;
40541;SDS011;49288;52.194;5.676;2023-07-29T03:34:39;14.77;;;7.73;;
40541;SDS011;49288;52.194;5.676;2023-07-29T03:39:43;13.75;;;7.35;;
40541;SDS011;49288;52.194;5.676;2023-07-29T03:44:48;15.57;;;7.38;;
40541;SDS011;49288;52.194;5.676;2023-07-29T03:49:51;15.05;;;7.60;;
40541;SDS011;49288;52.194;5.676;2023-07-29T03:54:57;12.43;;;6.97;;
40541;SDS011;49288;52.194;5.676;2023-07-29T04:00:00;10.27;;;6.32;;
40541;SDS011;49288;52.194;5.676;2023-07-29T04:05:22;22.77;;;9.00;;
40541;SDS011;49288;52.194;5.676;2023-07-29T04:10:25;13.90;;;7.30;;
40541;SDS011;49288;52.194;5.676;2023-07-29T04:15:28;13.55;;;6.32;;
40541;SDS011;49288;52.194;5.676;2023-07-29T04:20:32;15.27;;;7.80;;
40541;SDS011;49288;52.194;5.676;2023-07-29T04:25:35;15.45;;;7.43;;
40541;SDS011;49288;52.194;5.676;2023-07-29T04:30:38;21.55;;;8.65;;
40541;SDS011;49288;52.194;5.676;2023-07-29T04:35:42;14.55;;;6.60;;
40541;SDS011;49288;52.194;5.676;2023-07-29T04:40:45;21.10;;;7.05;;
40541;SDS011;49288;52.194;5.676;2023-07-29T04:45:50;15.13;;;6.65;;
40541;SDS011;49288;52.194;5.676;2023-07-29T04:50:53;15.60;;;7.57;;
40541;SDS011;49288;52.194;5.676;2023-07-29T04:55:56;10.15;;;5.80;;
40541;SDS011;49288;52.194;5.676;2023-07-29T05:00:59;10.30;;;4.80;;
40541;SDS011;49288;52.194;5.676;2023-07-29T05:06:01;8.70;;;5.38;;
40541;SDS011;49288;52.194;5.676;2023-07-29T05:11:04;13.57;;;5.55;;
40541;SDS011;49288;52.194;5.676;2023-07-29T05:16:06;8.30;;;4.93;;
40541;SDS011;49288;52.194;5.676;2023-07-29T05:21:09;11.82;;;5.32;;
40541;SDS011;49288;52.194;5.676;2023-07-29T05:26:13;9.03;;;4.63;;
40541;SDS011;49288;52.194;5.676;2023-07-29T05:31:16;13.63;;;5.27;;
40541;SDS011;49288;52.194;5.676;2023-07-29T05:36:20;20.20;;;5.78;;
40541;SDS011;49288;52.194;5.676;2023-07-29T05:41:23;15.35;;;5.75;;
40541;SDS011;49288;52.194;5.676;2023-07-29T05:46:28;12.77;;;4.63;;
40541;SDS011;49288;52.194;5.676;2023-07-29T05:51:31;10.07;;;5.22;;
40541;SDS011;49288;52.194;5.676;2023-07-29T05:56:34;13.45;;;5.65;;
40541;SDS011;49288;52.194;5.676;2023-07-29T06:01:37;12.63;;;5.38;;
40541;SDS011;49288;52.194;5.676;2023-07-29T06:06:41;13.35;;;5.68;;
40541;SDS011;49288;52.194;5.676;2023-07-29T06:11:43;12.98;;;6.03;;
40541;SDS011;49288;52.194;5.676;2023-07-29T06:16:46;16.05;;;6.35;;
40541;SDS011;49288;52.194;5.676;2023-07-29T06:21:49;13.05;;;6.65;;
40541;SDS011;49288;52.194;5.676;2023-07-29T06:26:51;17.05;;;7.75;;
40541;SDS011;49288;52.194;5.676;2023-07-29T06:31:54;14.45;;;6.95;;
40541;SDS011;49288;52.194;5.676;2023-07-29T06:36:57;13.93;;;7.07;;
40541;SDS011;49288;52.194;5.676;2023-07-29T06:42:21;14.00;;;6.70;;
40541;SDS011;49288;52.194;5.676;2023-07-29T06:52:45;13.80;;;7.38;;
40541;SDS011;49288;52.194;5.676;2023-07-29T06:57:49;12.48;;;6.88;;
40541;SDS011;49288;52.194;5.676;2023-07-29T07:02:52;10.32;;;6.15;;
40541;SDS011;49288;52.194;5.676;2023-07-29T07:08:14;11.30;;;5.63;;
40541;SDS011;49288;52.194;5.676;2023-07-29T07:13:16;11.32;;;6.55;;
40541;SDS011;49288;52.194;5.676;2023-07-29T07:18:19;11.05;;;5.70;;
40541;SDS011;49288;52.194;5.676;2023-07-29T07:23:24;16.77;;;7.47;;
40541;SDS011;49288;52.194;5.676;2023-07-29T07:28:26;13.20;;;7.97;;
40541;SDS011;49288;52.194;5.676;2023-07-29T07:33:47;15.13;;;7.18;;
40541;SDS011;49288;52.194;5.676;2023-07-29T07:38:50;12.55;;;7.72;;
40541;SDS011;49288;52.194;5.676;2023-07-29T07:43:53;15.07;;;8.25;;
40541;SDS011;49288;52.194;5.676;2023-07-29T07:48:56;12.40;;;8.18;;
40541;SDS011;49288;52.194;5.676;2023-07-29T07:53:58;14.98;;;8.93;;
40541;SDS011;49288;52.194;5.676;2023-07-29T07:59:01;14.70;;;9.27;;
40541;SDS011;49288;52.194;5.676;2023-07-29T08:04:04;17.02;;;9.65;;
40541;SDS011;49288;52.194;5.676;2023-07-29T08:09:06;15.98;;;8.70;;
40541;SDS011;49288;52.194;5.676;2023-07-29T08:14:10;12.73;;;8.95;;
40541;SDS011;49288;52.194;5.676;2023-07-29T08:19:13;16.08;;;8.73;;
40541;SDS011;49288;52.194;5.676;2023-07-29T08:24:16;14.27;;;7.68;;
40541;SDS011;49288;52.194;5.676;2023-07-29T08:29:18;12.88;;;8.02;;
40541;SDS011;49288;52.194;5.676;2023-07-29T08:34:21;12.68;;;7.28;;
40541;SDS011;49288;52.194;5.676;2023-07-29T08:39:24;10.07;;;6.78;;
40541;SDS011;49288;52.194;5.676;2023-07-29T08:44:30;15.17;;;7.23;;
40541;SDS011;49288;52.194;5.676;2023-07-29T08:49:35;12.90;;;7.57;;
40541;SDS011;49288;52.194;5.676;2023-07-29T08:54:38;14.13;;;7.20;;
40541;SDS011;49288;52.194;5.676;2023-07-29T08:59:41;14.85;;;6.72;;
40541;SDS011;49288;52.194;5.676;2023-07-29T09:04:44;12.03;;;6.70;;
40541;SDS011;49288;52.194;5.676;2023-07-29T09:09:47;8.15;;;5.38;;
40541;SDS011;49288;52.194;5.676;2023-07-29T09:14:53;7.15;;;5.28;;
40541;SDS011;49288;52.194;5.676;2023-07-29T09:19:56;8.45;;;5.60;;
40541;SDS011;49288;52.194;5.676;2023-07-29T09:25:00;9.85;;;4.65;;
40541;SDS011;49288;52.194;5.676;2023-07-29T09:30:02;9.40;;;5.28;;
40541;SDS011;49288;52.194;5.676;2023-07-29T09:35:10;11.00;;;5.13;;
40541;SDS011;49288;52.194;5.676;2023-07-29T09:40:15;11.43;;;5.60;;
40541;SDS011;49288;52.194;5.676;2023-07-29T09:45:20;12.85;;;5.90;;
40541;SDS011;49288;52.194;5.676;2023-07-29T09:50:23;10.43;;;5.32;;
40541;SDS011;49288;52.194;5.676;2023-07-29T09:55:27;12.88;;;5.97;;
40541;SDS011;49288;52.194;5.676;2023-07-29T10:00:30;8.73;;;6.25;;
40541;SDS011;49288;52.194;5.676;2023-07-29T10:10:38;12.10;;;5.88;;
40541;SDS011;49288;52.194;5.676;2023-07-29T10:16:02;17.67;;;6.00;;
40541;SDS011;49288;52.194;5.676;2023-07-29T10:21:05;8.40;;;5.25;;
40541;SDS011;49288;52.194;5.676;2023-07-29T10:26:09;8.50;;;4.75;;
40541;SDS011;49288;52.194;5.676;2023-07-29T10:31:13;8.15;;;5.53;;
40541;SDS011;49288;52.194;5.676;2023-07-29T10:36:17;11.07;;;6.43;;
40541;SDS011;49288;52.194;5.676;2023-07-29T10:41:24;14.30;;;6.72;;
40541;SDS011;49288;52.194;5.676;2023-07-29T10:47:10;10.20;;;6.22;;
40541;SDS011;49288;52.194;5.676;2023-07-29T10:52:27;7.53;;;5.65;;
40541;SDS011;49288;52.194;5.676;2023-07-29T10:57:37;11.43;;;6.53;;
40541;SDS011;49288;52.194;5.676;2023-07-29T11:02:43;8.93;;;6.13;;
40541;SDS011;49288;52.194;5.676;2023-07-29T11:08:00;7.72;;;6.10;;
40541;SDS011;49288;52.194;5.676;2023-07-29T11:13:38;10.13;;;6.03;;
40541;SDS011;49288;52.194;5.676;2023-07-29T11:18:41;11.37;;;6.40;;
40541;SDS011;49288;52.194;5.676;2023-07-29T11:23:45;8.63;;;6.15;;
40541;SDS011;49288;52.194;5.676;2023-07-29T11:28:48;14.90;;;6.87;;
40541;SDS011;49288;52.194;5.676;2023-07-29T11:33:51;9.77;;;7.03;;
40541;SDS011;49288;52.194;5.676;2023-07-29T11:38:54;11.25;;;7.50;;
40541;SDS011;49288;52.194;5.676;2023-07-29T11:43:56;8.10;;;4.90;;
40541;SDS011;49288;52.194;5.676;2023-07-29T11:49:00;7.50;;;5.18;;
40541;SDS011;49288;52.194;5.676;2023-07-29T11:54:03;6.18;;;4.05;;
40541;SDS011;49288;52.194;5.676;2023-07-29T11:59:07;6.53;;;3.20;;
40541;SDS011;49288;52.194;5.676;2023-07-29T12:09:15;5.93;;;3.25;;
40541;SDS011;49288;52.194;5.676;2023-07-29T12:14:17;6.57;;;3.00;;
40541;SDS011;49288;52.194;5.676;2023-07-29T12:19:20;5.35;;;3.30;;
40541;SDS011;49288;52.194;5.676;2023-07-29T12:29:26;7.47;;;4.55;;
40541;SDS011;49288;52.194;5.676;2023-07-29T12:34:30;5.57;;;3.90;;
40541;SDS011;49288;52.194;5.676;2023-07-29T12:39:35;5.75;;;4.03;;
40541;SDS011;49288;52.194;5.676;2023-07-29T12:44:42;7.70;;;4.63;;
40541;SDS011;49288;52.194;5.676;2023-07-29T12:49:44;7.03;;;3.40;;
40541;SDS011;49288;52.194;5.676;2023-07-29T12:54:48;5.00;;;3.90;;
40541;SDS011;49288;52.194;5.676;2023-07-29T12:59:52;9.13;;;3.70;;
40541;SDS011;49288;52.194;5.676;2023-07-29T13:04:54;5.70;;;3.53;;
40541;SDS011;49288;52.194;5.676;2023-07-29T13:09:58;7.65;;;3.83;;
40541;SDS011;49288;52.194;5.676;2023-07-29T13:15:00;5.38;;;3.25;;
40541;SDS011;49288;52.194;5.676;2023-07-29T13:20:03;5.90;;;3.77;;
40541;SDS011;49288;52.194;5.676;2023-07-29T13:25:06;6.53;;;2.95;;
40541;SDS011;49288;52.194;5.676;2023-07-29T13:30:11;5.75;;;2.70;;
40541;SDS011;49288;52.194;5.676;2023-07-29T13:35:14;3.75;;;2.42;;
40541;SDS011;49288;52.194;5.676;2023-07-29T13:40:17;3.50;;;2.60;;
40541;SDS011;49288;52.194;5.676;2023-07-29T13:45:20;4.57;;;2.70;;
40541;SDS011;49288;52.194;5.676;2023-07-29T13:50:23;3.38;;;2.42;;
40541;SDS011;49288;52.194;5.676;2023-07-29T13:55:26;11.68;;;2.92;;
40541;SDS011;49288;52.194;5.676;2023-07-29T14:00:30;4.63;;;2.50;;
40541;SDS011;49288;52.194;5.676;2023-07-29T14:05:33;5.95;;;3.47;;
40541;SDS011;49288;52.194;5.676;2023-07-29T14:10:36;9.00;;;3.72;;
40541;SDS011;49288;52.194;5.676;2023-07-29T14:15:38;7.45;;;4.00;;
40541;SDS011;49288;52.194;5.676;2023-07-29T14:20:41;5.75;;;4.10;;
40541;SDS011;49288;52.194;5.676;2023-07-29T14:25:43;7.25;;;4.43;;
40541;SDS011;49288;52.194;5.676;2023-07-29T14:30:46;6.38;;;3.95;;
40541;SDS011;49288;52.194;5.676;2023-07-29T14:35:49;8.93;;;4.60;;
40541;SDS011;49288;52.194;5.676;2023-07-29T14:40:52;10.57;;;4.25;;
40541;SDS011;49288;52.194;5.676;2023-07-29T14:45:57;7.60;;;3.67;;
40541;SDS011;49288;52.194;5.676;2023-07-29T14:51:02;4.80;;;3.13;;
40541;SDS011;49288;52.194;5.676;2023-07-29T14:56:05;5.20;;;3.00;;
40541;SDS011;49288;52.194;5.676;2023-07-29T15:01:08;4.65;;;2.60;;
40541;SDS011;49288;52.194;5.676;2023-07-29T15:06:10;4.35;;;2.75;;
40541;SDS011;49288;52.194;5.676;2023-07-29T15:11:14;4.68;;;2.30;;
40541;SDS011;49288;52.194;5.676;2023-07-29T15:16:22;4.13;;;2.55;;
40541;SDS011;49288;52.194;5.676;2023-07-29T15:21:27;4.68;;;2.55;;
40541;SDS011;49288;52.194;5.676;2023-07-29T15:26:48;3.58;;;2.13;;
40541;SDS011;49288;52.194;5.676;2023-07-29T15:31:51;3.80;;;2.10;;
40541;SDS011;49288;52.194;5.676;2023-07-29T15:36:53;5.20;;;2.20;;
40541;SDS011;49288;52.194;5.676;2023-07-29T15:41:56;5.35;;;2.17;;
40541;SDS011;49288;52.194;5.676;2023-07-29T15:46:59;3.38;;;2.13;;
40541;SDS011;49288;52.194;5.676;2023-07-29T15:52:03;4.60;;;2.00;;
40541;SDS011;49288;52.194;5.676;2023-07-29T15:57:05;4.22;;;2.05;;
40541;SDS011;49288;52.194;5.676;2023-07-29T16:02:09;6.18;;;2.17;;
40541;SDS011;49288;52.194;5.676;2023-07-29T16:07:12;4.75;;;2.38;;
40541;SDS011;49288;52.194;5.676;2023-07-29T16:12:15;4.57;;;2.30;;
40541;SDS011;49288;52.194;5.676;2023-07-29T16:17:18;7.38;;;2.75;;
40541;SDS011;49288;52.194;5.676;2023-07-29T16:22:20;3.72;;;2.63;;
40541;SDS011;49288;52.194;5.676;2023-07-29T16:27:23;5.30;;;2.90;;
40541;SDS011;49288;52.194;5.676;2023-07-29T16:32:26;4.90;;;2.88;;
40541;SDS011;49288;52.194;5.676;2023-07-29T16:37:29;4.17;;;3.07;;
40541;SDS011;49288;52.194;5.676;2023-07-29T16:42:32;3.03;;;2.53;;
40541;SDS011;49288;52.194;5.676;2023-07-29T16:47:35;5.53;;;3.20;;
40541;SDS011;49288;52.194;5.676;2023-07-29T16:52:37;9.87;;;3.80;;
40541;SDS011;49288;52.194;5.676;2023-07-29T16:57:41;6.13;;;3.07;;
40541;SDS011;49288;52.194;5.676;2023-07-29T17:02:44;5.38;;;3.10;;
40541;SDS011;49288;52.194;5.676;2023-07-29T17:07:47;4.30;;;2.63;;
40541;SDS011;49288;52.194;5.676;2023-07-29T17:12:50;8.05;;;2.85;;
40541;SDS011;49288;52.194;5.676;2023-07-29T17:17:53;8.30;;;2.90;;
40541;SDS011;49288;52.194;5.676;2023-07-29T17:22:58;3.42;;;2.50;;
40541;SDS011;49288;52.194;5.676;2023-07-29T17:28:00;5.83;;;2.70;;
40541;SDS011;49288;52.194;5.676;2023-07-29T17:33:04;5.38;;;3.08;;
40541;SDS011;49288;52.194;5.676;2023-07-29T17:38:07;6.93;;;4.10;;
40541;SDS011;49288;52.194;5.676;2023-07-29T17:43:14;5.95;;;3.90;;
40541;SDS011;49288;52.194;5.676;2023-07-29T17:48:16;6.65;;;3.90;;
40541;SDS011;49288;52.194;5.676;2023-07-29T17:53:19;9.63;;;4.30;;
40541;SDS011;49288;52.194;5.676;2023-07-29T17:58:22;4.85;;;3.83;;
40541;SDS011;49288;52.194;5.676;2023-07-29T18:03:24;7.13;;;4.43;;
40541;SDS011;49288;52.194;5.676;2023-07-29T18:08:28;8.43;;;5.10;;
40541;SDS011;49288;52.194;5.676;2023-07-29T18:13:31;8.38;;;4.47;;
40541;SDS011;49288;52.194;5.676;2023-07-29T18:18:34;9.05;;;4.60;;
40541;SDS011;49288;52.194;5.676;2023-07-29T18:23:36;5.55;;;4.38;;
40541;SDS011;49288;52.194;5.676;2023-07-29T18:28:39;8.25;;;4.40;;
40541;SDS011;49288;52.194;5.676;2023-07-29T18:33:43;10.13;;;4.32;;
40541;SDS011;49288;52.194;5.676;2023-07-29T18:38:47;8.82;;;4.00;;
40541;SDS011;49288;52.194;5.676;2023-07-29T18:43:51;7.38;;;3.60;;
40541;SDS011;49288;52.194;5.676;2023-07-29T18:49:02;10.30;;;4.30;;
40541;SDS011;49288;52.194;5.676;2023-07-29T18:54:07;8.68;;;3.33;;
40541;SDS011;49288;52.194;5.676;2023-07-29T18:59:10;7.00;;;3.43;;
40541;SDS011;49288;52.194;5.676;2023-07-29T19:04:12;11.85;;;3.42;;
40541;SDS011;49288;52.194;5.676;2023-07-29T19:09:34;14.45;;;3.60;;
40541;SDS011;49288;52.194;5.676;2023-07-29T19:14:38;4.97;;;2.80;;
40541;SDS011;49288;52.194;5.676;2023-07-29T19:19:42;8.53;;;3.17;;
40541;SDS011;49288;52.194;5.676;2023-07-29T19:24:45;11.93;;;3.25;;
40541;SDS011;49288;52.194;5.676;2023-07-29T19:29:47;8.93;;;3.53;;
40541;SDS011;49288;52.194;5.676;2023-07-29T19:34:53;9.75;;;3.17;;
40541;SDS011;49288;52.194;5.676;2023-07-29T19:39:59;9.23;;;3.35;;
40541;SDS011;49288;52.194;5.676;2023-07-29T19:45:02;7.95;;;3.05;;
40541;SDS011;49288;52.194;5.676;2023-07-29T19:50:05;12.23;;;3.50;;
40541;SDS011;49288;52.194;5.676;2023-07-29T19:55:08;5.82;;;3.15;;
40541;SDS011;49288;52.194;5.676;2023-07-29T20:00:11;12.23;;;3.58;;
40541;SDS011;49288;52.194;5.676;2023-07-29T20:05:15;11.85;;;3.85;;
40541;SDS011;49288;52.194;5.676;2023-07-29T20:10:21;8.43;;;3.85;;
40541;SDS011;49288;52.194;5.676;2023-07-29T20:15:23;14.63;;;4.70;;
40541;SDS011;49288;52.194;5.676;2023-07-29T20:20:26;14.20;;;3.80;;
40541;SDS011;49288;52.194;5.676;2023-07-29T20:25:29;12.07;;;3.60;;
40541;SDS011;49288;52.194;5.676;2023-07-29T20:30:32;11.75;;;3.40;;
40541;SDS011;49288;52.194;5.676;2023-07-29T20:35:37;16.85;;;3.60;;
40541;SDS011;49288;52.194;5.676;2023-07-29T20:40:47;16.57;;;6.53;;
40541;SDS011;49288;52.194;5.676;2023-07-29T20:45:55;20.83;;;7.60;;
40541;SDS011;49288;52.194;5.676;2023-07-29T20:50:58;26.42;;;7.40;;
40541;SDS011;49288;52.194;5.676;2023-07-29T20:56:01;16.02;;;4.80;;
40541;SDS011;49288;52.194;5.676;2023-07-29T21:01:04;14.27;;;4.90;;
40541;SDS011;49288;52.194;5.676;2023-07-29T21:06:10;17.13;;;4.33;;
40541;SDS011;49288;52.194;5.676;2023-07-29T21:11:14;11.30;;;3.60;;
40541;SDS011;49288;52.194;5.676;2023-07-29T21:16:17;18.48;;;4.60;;
40541;SDS011;49288;52.194;5.676;2023-07-29T21:21:20;19.83;;;5.45;;
40541;SDS011;49288;52.194;5.676;2023-07-29T21:26:22;11.93;;;4.18;;
40541;SDS011;49288;52.194;5.676;2023-07-29T21:31:26;19.33;;;4.20;;
40541;SDS011;49288;52.194;5.676;2023-07-29T21:36:29;15.32;;;3.70;;
40541;SDS011;49288;52.194;5.676;2023-07-29T21:41:32;18.08;;;4.78;;
40541;SDS011;49288;52.194;5.676;2023-07-29T21:46:37;18.85;;;5.15;;
40541;SDS011;49288;52.194;5.676;2023-07-29T21:51:40;18.13;;;4.63;;
40541;SDS011;49288;52.194;5.676;2023-07-29T21:56:42;13.93;;;4.20;;
40541;SDS011;49288;52.194;5.676;2023-07-29T22:01:45;13.95;;;3.88;;
40541;SDS011;49288;52.194;5.676;2023-07-29T22:06:50;14.00;;;4.03;;
40541;SDS011;49288;52.194;5.676;2023-07-29T22:11:53;16.17;;;3.67;;
40541;SDS011;49288;52.194;5.676;2023-07-29T22:16:56;23.48;;;4.75;;
40541;SDS011;49288;52.194;5.676;2023-07-29T22:22:00;11.55;;;3.42;;
40541;SDS011;49288;52.194;5.676;2023-07-29T22:27:03;11.20;;;3.35;;
40541;SDS011;49288;52.194;5.676;2023-07-29T22:32:08;12.95;;;3.50;;
40541;SDS011;49288;52.194;5.676;2023-07-29T22:37:11;18.02;;;3.80;;
40541;SDS011;49288;52.194;5.676;2023-07-29T22:42:14;24.20;;;3.17;;
40541;SDS011;49288;52.194;5.676;2023-07-29T22:47:17;18.58;;;3.95;;
40541;SDS011;49288;52.194;5.676;2023-07-29T22:52:21;8.13;;;3.05;;
40541;SDS011;49288;52.194;5.676;2023-07-29T22:57:42;15.93;;;3.92;;
40541;SDS011;49288;52.194;5.676;2023-07-29T23:02:45;15.85;;;3.97;;
40541;SDS011;49288;52.194;5.676;2023-07-29T23:07:48;13.82;;;4.10;;
40541;SDS011;49288;52.194;5.676;2023-07-29T23:12:50;8.00;;;3.47;;
40541;SDS011;49288;52.194;5.676;2023-07-29T23:17:54;11.53;;;3.20;;
40541;SDS011;49288;52.194;5.676;2023-07-29T23:22:57;12.63;;;3.65;;
40541;SDS011;49288;52.194;5.676;2023-07-29T23:28:18;19.08;;;3.90;;
40541;SDS011;49288;52.194;5.676;2023-07-29T23:33:42;11.35;;;3.17;;
40541;SDS011;49288;52.194;5.676;2023-07-29T23:38:45;17.45;;;3.45;;
40541;SDS011;49288;52.194;5.676;2023-07-29T23:43:48;10.35;;;3.53;;
40541;SDS011;49288;52.194;5.676;2023-07-29T23:48:51;10.32;;;3.40;;
40541;SDS011;49288;52.194;5.676;2023-07-29T23:53:54;10.57;;;3.20;;
40541;SDS011;49288;52.194;5.676;2023-07-29T23:58:59;17.17;;;3.95;;
